createdAt,value
2022-10-03T05:49:57.741Z,32.5
2022-10-03T05:55:39.124Z,32.4
2022-10-03T06:01:14.993Z,32.4
2022-10-03T06:06:53.724Z,32.4
2022-10-03T06:12:31.618Z,32.3
2022-10-03T06:18:12.515Z,32.2
2022-10-03T06:23:55.451Z,32.1
2022-10-03T06:29:33.420Z,31.8
2022-10-03T06:35:12.299Z,31.5
2022-10-03T06:40:39.265Z,31.1
2022-10-03T06:46:20.527Z,30.9
2022-10-03T06:52:03.489Z,30.7
2022-10-03T06:57:40.679Z,30.5
2022-10-03T07:03:19.597Z,30.3
2022-10-03T07:08:59.617Z,29.9
2022-10-03T07:14:42.835Z,29.7
2022-10-03T07:20:57.609Z,29.4
2022-10-03T07:26:21.069Z,29.3
2022-10-03T07:32:05.307Z,29.1
2022-10-03T07:37:42.902Z,29
2022-10-03T07:43:19.799Z,28.9
2022-10-03T07:48:58.206Z,28.6
2022-10-03T07:54:38.627Z,28.2
2022-10-03T08:05:29.286Z,27.5
2022-10-03T08:11:10.066Z,27.1
2022-10-03T08:22:14.054Z,26.6
2022-10-03T08:27:51.727Z,26.3
2022-10-03T08:33:28.766Z,26.1
2022-10-03T08:39:06.840Z,25.9
2022-10-03T08:44:46.935Z,25.8
2022-10-03T08:50:24.951Z,25.6
2022-10-03T08:55:47.298Z,25.4
2022-10-03T09:01:25.304Z,25.3
2022-10-03T09:08:04.808Z,25.2
2022-10-03T09:13:45.543Z,25
2022-10-03T09:19:23.996Z,24.9
2022-10-03T09:25:01.425Z,24.8
2022-10-03T09:30:39.244Z,24.8
2022-10-03T09:36:17.389Z,24.6
2022-10-03T09:41:43.042Z,24.6
2022-10-03T09:47:21.633Z,19.9
2022-10-03T09:52:59.026Z,24.1
2022-10-03T12:06:15.251Z,36.1
2022-10-03T12:11:39.525Z,38.9
2022-10-03T12:17:01.786Z,40.1
2022-10-03T12:27:03.846Z,44.1
2022-10-03T12:32:26.677Z,44.4
2022-10-03T12:37:48.661Z,44.7
2022-10-03T12:43:25.588Z,44.8
2022-10-03T12:49:30.055Z,44.9
2022-10-03T12:55:07.872Z,45.2
2022-10-03T13:00:46.350Z,45.3
2022-10-03T13:06:39.072Z,45.3
2022-10-03T13:12:27.762Z,45.6
2022-10-03T13:18:06.263Z,45.3
2022-10-03T13:24:13.264Z,45.1
2022-10-03T13:29:57.093Z,44.9
2022-10-03T13:35:19.949Z,44.6
2022-10-03T13:40:57.479Z,44.4
2022-10-03T13:46:36.230Z,44.1
2022-10-03T13:52:14.814Z,43.8
2022-10-03T13:57:53.973Z,43.6
2022-10-03T14:03:33.002Z,43.3
2022-10-03T14:09:11.010Z,42.9
2022-10-03T14:15:07.939Z,42.4
2022-10-03T14:20:46.365Z,41.8
2022-10-03T14:26:27.776Z,41.4
2022-10-03T14:37:50.773Z,39
2022-10-03T14:43:28.440Z,37.5
2022-10-03T14:48:58.376Z,36.4
2022-10-03T14:54:52.346Z,35.6
2022-10-03T15:00:55.361Z,34.9
2022-10-03T15:11:24.217Z,33.8
2022-10-03T15:16:47.290Z,33.2
2022-10-03T15:22:30.513Z,32.8
2022-10-03T15:27:52.222Z,32.4
2022-10-03T15:38:24.613Z,31.9
2022-10-03T15:44:02.398Z,31.8
2022-10-03T15:49:09.349Z,31.6
2022-10-03T15:55:10.881Z,31.4
2022-10-03T16:00:52.886Z,31.3
2022-10-03T16:06:35.609Z,31.2
2022-10-03T16:11:58.809Z,31.1
2022-10-03T17:44:26.190Z,30.6
2022-10-03T17:49:52.899Z,30.6
2022-10-03T17:55:19.843Z,30.6
2022-10-03T18:05:39.506Z,30.5
2022-10-03T18:11:01.740Z,30.5
2022-10-03T18:16:26.095Z,30.5
2022-10-03T18:21:48.595Z,30.4
2022-10-03T18:28:00.348Z,30.4
2022-10-03T18:33:25.855Z,30.4
2022-10-03T18:38:32.359Z,30.4
2022-10-03T18:49:52.306Z,30.4
2022-10-03T18:55:30.479Z,30.3
2022-10-03T19:01:07.901Z,30.3
2022-10-03T19:06:52.334Z,30.3
2022-10-03T19:12:30.009Z,30.3
2022-10-03T19:18:07.842Z,30.3
2022-10-03T19:23:45.407Z,30.4
2022-10-03T19:29:30.362Z,30.6
2022-10-03T19:35:08.085Z,31
2022-10-03T19:40:48.370Z,31.5
2022-10-03T19:46:11.119Z,32.1
2022-10-03T19:57:03.467Z,33.2
2022-10-03T20:02:41.952Z,33.8
2022-10-03T20:13:25.717Z,35.1
2022-10-03T20:18:32.567Z,35.4
2022-10-03T20:23:38.946Z,35.6
2022-10-03T20:28:45.909Z,35.8
2022-10-03T20:33:37.665Z,35.8
2022-10-03T20:38:59.720Z,35.9
2022-10-03T20:44:14.407Z,35.9
2022-10-03T20:49:21.386Z,35.9
2022-10-03T20:54:27.972Z,35.9
2022-10-03T20:59:23.748Z,35.9
2022-10-03T21:04:30.738Z,35.9
2022-10-03T21:09:55.004Z,35.9
2022-10-03T21:25:19.616Z,35.9
2022-10-03T21:30:26.775Z,35.9
2022-10-03T21:36:05.485Z,35.9
2022-10-03T21:41:43.375Z,35.9
2022-10-03T21:47:05.863Z,35.9
